Hauptseite
METAR-TAF:

METAR-TAF

Flughäfen :

RAF Fairford

Fairford, England

Breite: 51-41N, Länge: 001-47W, Höhe: 87 m

Beobachtung

Neuester Wetterbericht von vor 1 Stunde und 12 Minuten, um 19:56 UTC
Windstille
Temperatur 2°C
Luftfeuchtigkeit 100%
Luftdruck 1002 hPa
Himmel klar

METAR: EGVA 161956Z AUTO 00000KT M M CLR 02/02 A2960 RMK AO2 SLP030 T00240018 RVRNO $

Zeit: 21:08 (21:08 UTC)


TAF: fehlend

Wetterbeobachtungen und Prognosen von mehr als 4000 Flughäfen (METAR und TAF Bericht).

Die verfügbaren Stationen werden durch gelbe und rote Markierungen auf der Karte dargestellt.

Führen Sie die Maus auf sie, um den Namen der Station zu sehen.

Darauf klicken, um die Beobachtung von Wetterbeobachtungen und Prognosen zu sehen.

Um die Karte zu ändern : klicken Sie auf den grünen Tasten mit einem schwarzen Kreuz Zum Vergrößern, auf den grünen Button mit einem Gedankenstrich zu verkleinern, oder auf die grünen Pfeile für benachbarte Karten.


METAR-TAF: